Time;durP1;ratioP1;P1;durP2;ratioP2;P2;SDS_P1;SDS_P2;PMS_P1;PMS_P2;Temp;Humidity;BMP_temperature;BMP_pressure;BME280_temperature;BME280_humidity;BME280_pressure;Samples;Min_cycle;Max_cycle;Signal;HPM_P1;HPM_P2
2022/04/30 00:00:47;;;;;;;;;19.50;19.50;;;;;;;;5016990;28;45291;-69
2022/04/30 00:03:12;;;;;;;;;21.75;20.25;;;;;;;;5017172;28;45223;-69
2022/04/30 00:05:37;;;;;;;;;25.75;21.75;;;;;;;;5016648;28;45541;-69
2022/04/30 00:08:04;;;;;;;;;19.75;19.75;;;;;;;;5016889;28;45296;-69
2022/04/30 00:10:29;;;;;;;;;18.75;16.25;;;;;;;;5016902;28;45370;-70
2022/04/30 00:12:55;;;;;;;;;22.25;18.50;;;;;;;;5017284;28;45469;-70
2022/04/30 00:15:21;;;;;;;;;15.00;14.50;;;;;;;;5016927;28;46204;-70
2022/04/30 00:17:46;;;;;;;;;15.50;15.50;;;;;;;;5016698;28;45443;-70
2022/04/30 00:20:12;;;;;;;;;18.00;16.75;;;;;;;;5016277;28;45405;-70
2022/04/30 00:22:37;;;;;;;;;14.25;14.25;;;;;;;;5016891;28;45299;-69
2022/04/30 00:25:03;;;;;;;;;15.25;13.25;;;;;;;;5016395;28;46224;-70
2022/04/30 00:27:28;;;;;;;;;17.25;13.00;;;;;;;;5016339;28;45256;-70
2022/04/30 00:29:54;;;;;;;;;15.00;14.00;;;;;;;;5016883;28;45268;-70
2022/04/30 00:32:21;;;;;;;;;20.50;16.25;;;;;;;;5015278;28;45438;-70
2022/04/30 00:34:47;;;;;;;;;13.25;13.00;;;;;;;;5016521;28;45410;-70
2022/04/30 00:37:12;;;;;;;;;17.50;15.25;;;;;;;;5016410;28;45387;-70
2022/04/30 00:39:38;;;;;;;;;17.25;16.75;;;;;;;;5016627;28;45363;-70
2022/04/30 00:42:03;;;;;;;;;13.00;13.00;;;;;;;;5016813;28;45406;-70
2022/04/30 00:44:29;;;;;;;;;14.50;13.50;;;;;;;;5016217;28;46094;-70
2022/04/30 00:46:54;;;;;;;;;18.25;17.00;;;;;;;;5015347;28;45385;-69
2022/04/30 00:49:20;;;;;;;;;18.50;16.50;;;;;;;;5016496;28;45458;-69
2022/04/30 00:51:45;;;;;;;;;18.00;16.75;;;;;;;;5016531;28;45213;-69
2022/04/30 00:54:12;;;;;;;;;18.00;17.00;;;;;;;;5016018;28;45331;-70
2022/04/30 00:56:46;;;;;;;;;16.75;16.00;;;;;;;;5016193;28;45836;-70
2022/04/30 00:59:17;;;;;;;;;16.75;16.75;;;;;;;;5016111;28;45566;-69
2022/04/30 01:01:43;;;;;;;;;20.00;16.50;;;;;;;;5016359;28;45480;-70
2022/04/30 01:04:08;;;;;;;;;21.50;19.25;;;;;;;;5017306;28;45888;-70
2022/04/30 01:06:55;;;;;;;;;20.25;18.75;;;;;;;;5019625;28;45414;-69
2022/04/30 01:09:24;;;;;;;;;20.75;17.00;;;;;;;;5019499;28;45380;-70
2022/04/30 01:11:57;;;;;;;;;21.25;17.75;;;;;;;;5019467;28;45442;-70
2022/04/30 01:14:25;;;;;;;;;16.25;15.25;;;;;;;;5019317;28;45434;-70
2022/04/30 01:16:51;;;;;;;;;20.00;17.50;;;;;;;;5019248;28;45434;-70
2022/04/30 01:19:20;;;;;;;;;20.50;19.00;;;;;;;;5019402;28;45379;-70
2022/04/30 01:21:50;;;;;;;;;22.25;18.75;;;;;;;;5019469;28;45469;-70
2022/04/30 01:24:17;;;;;;;;;18.75;17.75;;;;;;;;5018617;28;46237;-70
2022/04/30 01:26:42;;;;;;;;;16.75;14.75;;;;;;;;5019041;28;45409;-70
2022/04/30 01:29:08;;;;;;;;;20.25;19.50;;;;;;;;5019175;28;45479;-70
2022/04/30 01:39:45;;;;;;;;;18.00;17.25;;;;;;;;5019257;28;45920;-70
2022/04/30 01:42:11;;;;;;;;;20.00;18.50;;;;;;;;5019271;28;45351;-70
2022/04/30 01:44:37;;;;;;;;;17.75;17.50;;;;;;;;5018706;28;45434;-71
2022/04/30 01:47:03;;;;;;;;;20.25;17.00;;;;;;;;5018740;28;45454;-70
2022/04/30 01:49:28;;;;;;;;;23.25;21.75;;;;;;;;5019219;28;45402;-70
2022/04/30 01:51:53;;;;;;;;;15.00;15.00;;;;;;;;5019070;28;45502;-69
2022/04/30 01:54:19;;;;;;;;;21.75;20.50;;;;;;;;5018558;28;45449;-70
2022/04/30 01:56:45;;;;;;;;;18.75;18.00;;;;;;;;5018599;28;45501;-70
2022/04/30 01:59:10;;;;;;;;;17.75;14.50;;;;;;;;5018738;28;45256;-70
2022/04/30 02:01:37;;;;;;;;;18.00;17.25;;;;;;;;5018797;28;45218;-70
2022/04/30 02:04:03;;;;;;;;;21.00;18.25;;;;;;;;5018711;28;46338;-69
2022/04/30 02:06:29;;;;;;;;;20.25;18.25;;;;;;;;5018799;28;45411;-69
2022/04/30 02:08:54;;;;;;;;;21.00;19.50;;;;;;;;5018852;28;45524;-69
2022/04/30 02:11:20;;;;;;;;;18.50;17.00;;;;;;;;5018809;28;45391;-69
2022/04/30 02:13:52;;;;;;;;;23.25;18.50;;;;;;;;5018240;28;46524;-71
2022/04/30 02:16:20;;;;;;;;;20.75;16.25;;;;;;;;5018066;28;45525;-73
2022/04/30 02:18:45;;;;;;;;;22.75;21.00;;;;;;;;5018490;28;45501;-70
2022/04/30 02:21:11;;;;;;;;;21.00;20.00;;;;;;;;5018389;28;45335;-69
2022/04/30 02:23:36;;;;;;;;;21.50;19.50;;;;;;;;5018202;28;45359;-69
2022/04/30 02:26:04;;;;;;;;;20.50;19.25;;;;;;;;5018414;28;45471;-70
2022/04/30 02:28:30;;;;;;;;;19.25;18.25;;;;;;;;5018702;28;45470;-70
2022/04/30 02:30:56;;;;;;;;;24.50;22.75;;;;;;;;5018327;28;45153;-71
2022/04/30 02:33:22;;;;;;;;;24.50;22.00;;;;;;;;5017791;28;45469;-71
2022/04/30 02:35:47;;;;;;;;;24.00;23.00;;;;;;;;5017766;28;45432;-70
2022/04/30 02:38:13;;;;;;;;;23.50;22.50;;;;;;;;5018193;28;45529;-70
2022/04/30 02:40:39;;;;;;;;;22.75;22.00;;;;;;;;5018216;28;45427;-70
2022/04/30 02:43:06;;;;;;;;;28.00;23.75;;;;;;;;5017937;28;45963;-69
2022/04/30 02:45:32;;;;;;;;;27.75;24.25;;;;;;;;5018000;28;45395;-69
2022/04/30 02:47:58;;;;;;;;;26.00;23.25;;;;;;;;5017988;28;45320;-69
2022/04/30 02:50:24;;;;;;;;;22.75;22.00;;;;;;;;5018564;28;45458;-69
2022/04/30 02:52:50;;;;;;;;;21.00;20.75;;;;;;;;5017719;28;45840;-70
2022/04/30 02:55:16;;;;;;;;;24.00;21.00;;;;;;;;5017684;28;45407;-69
2022/04/30 03:00:30;;;;;;;;;21.25;18.25;;;;;;;;5018093;28;45301;-69
2022/04/30 03:02:56;;;;;;;;;25.25;23.25;;;;;;;;5017653;28;46136;-69
2022/04/30 03:05:22;;;;;;;;;26.50;21.75;;;;;;;;5017485;28;45418;-69
2022/04/30 03:07:47;;;;;;;;;19.25;19.25;;;;;;;;5017696;28;45435;-69
2022/04/30 03:10:13;;;;;;;;;25.00;22.00;;;;;;;;5017867;28;45469;-69
2022/04/30 03:12:38;;;;;;;;;24.25;24.25;;;;;;;;5017256;28;45540;-69
2022/04/30 03:15:04;;;;;;;;;25.25;23.25;;;;;;;;5016353;28;45471;-69
2022/04/30 03:22:57;;;;;;;;;23.00;21.25;;;;;;;;5017224;28;45912;-70
2022/04/30 03:25:23;;;;;;;;;24.50;22.00;;;;;;;;5017177;28;45439;-69
2022/04/30 03:27:49;;;;;;;;;23.75;20.75;;;;;;;;5016617;28;45237;-70
2022/04/30 03:30:14;;;;;;;;;22.25;21.00;;;;;;;;5017669;28;45236;-70
2022/04/30 03:32:42;;;;;;;;;22.00;21.00;;;;;;;;5017176;28;45517;-69
2022/04/30 03:35:08;;;;;;;;;23.75;23.00;;;;;;;;5017240;28;45375;-69
2022/04/30 03:37:35;;;;;;;;;21.75;20.00;;;;;;;;5017056;28;45388;-70
2022/04/30 03:40:00;;;;;;;;;22.50;20.75;;;;;;;;5017131;28;45438;-70
2022/04/30 03:42:25;;;;;;;;;24.25;24.00;;;;;;;;5015527;28;46217;-70
2022/04/30 03:44:53;;;;;;;;;29.25;26.25;;;;;;;;5017054;28;45497;-69
2022/04/30 03:47:19;;;;;;;;;26.25;23.50;;;;;;;;5017275;28;45385;-69
2022/04/30 03:49:44;;;;;;;;;21.50;19.25;;;;;;;;5017229;28;45564;-69
2022/04/30 03:52:10;;;;;;;;;23.25;19.00;;;;;;;;5016845;28;45931;-70
2022/04/30 03:54:36;;;;;;;;;24.00;22.75;;;;;;;;5017464;28;45438;-70
2022/04/30 03:57:01;;;;;;;;;23.50;21.50;;;;;;;;5017121;28;45390;-70
2022/04/30 03:59:26;;;;;;;;;26.00;20.50;;;;;;;;5017024;28;45299;-70
2022/04/30 04:01:52;;;;;;;;;24.00;22.25;;;;;;;;5016648;28;46194;-69
2022/04/30 04:04:17;;;;;;;;;23.50;21.50;;;;;;;;5016800;28;45441;-70
2022/04/30 04:06:42;;;;;;;;;23.25;21.50;;;;;;;;5016883;28;45469;-70
2022/04/30 04:09:08;;;;;;;;;23.75;21.00;;;;;;;;5017433;28;45439;-69
2022/04/30 04:11:34;;;;;;;;;25.50;21.50;;;;;;;;5017020;28;45976;-69
2022/04/30 04:19:30;;;;;;;;;22.00;21.50;;;;;;;;5016850;28;45437;-70
2022/04/30 04:21:56;;;;;;;;;17.00;14.75;;;;;;;;5016559;28;46087;-69
2022/04/30 04:27:05;;;;;;;;;23.00;23.00;;;;;;;;5016952;28;45457;-69
2022/04/30 04:29:31;;;;;;;;;20.25;19.75;;;;;;;;5016636;28;45533;-69
2022/04/30 04:31:56;;;;;;;;;21.25;19.00;;;;;;;;5016253;28;46596;-70
2022/04/30 04:34:21;;;;;;;;;24.75;21.25;;;;;;;;5016378;28;45335;-70
2022/04/30 04:36:47;;;;;;;;;22.00;19.50;;;;;;;;5016251;28;45378;-69
2022/04/30 04:39:14;;;;;;;;;25.75;22.00;;;;;;;;5019322;28;45307;-70
2022/04/30 04:41:42;;;;;;;;;22.00;19.00;;;;;;;;5019994;28;46243;-68
2022/04/30 04:44:08;;;;;;;;;19.50;18.50;;;;;;;;5020013;28;45411;-70
2022/04/30 04:46:33;;;;;;;;;25.00;22.50;;;;;;;;5019838;28;45249;-69
2022/04/30 04:48:59;;;;;;;;;23.50;20.00;;;;;;;;5018788;28;45329;-69
2022/04/30 04:51:24;;;;;;;;;24.50;22.75;;;;;;;;5019766;28;45860;-70
2022/04/30 04:53:50;;;;;;;;;25.50;23.75;;;;;;;;5019496;28;45628;-70
2022/04/30 04:56:15;;;;;;;;;19.00;17.75;;;;;;;;5019808;28;45629;-69
2022/04/30 04:58:40;;;;;;;;;25.75;22.75;;;;;;;;5020068;28;45541;-69
2022/04/30 05:01:06;;;;;;;;;23.25;21.00;;;;;;;;5019406;28;45542;-68
2022/04/30 05:03:31;;;;;;;;;22.00;20.25;;;;;;;;5019564;28;45421;-69
2022/04/30 05:05:57;;;;;;;;;22.25;21.25;;;;;;;;5019455;28;45457;-69
2022/04/30 05:08:22;;;;;;;;;22.75;21.50;;;;;;;;5019643;28;45477;-69
2022/04/30 05:10:47;;;;;;;;;18.00;15.50;;;;;;;;5019408;28;45303;-69
2022/04/30 05:13:13;;;;;;;;;20.50;19.00;;;;;;;;5019235;28;45388;-70
2022/04/30 05:15:39;;;;;;;;;25.75;23.00;;;;;;;;5019660;28;45703;-70
2022/04/30 05:18:05;;;;;;;;;24.50;24.00;;;;;;;;5019607;28;45431;-71
2022/04/30 05:20:30;;;;;;;;;23.50;21.75;;;;;;;;5019042;28;45782;-70
2022/04/30 05:22:55;;;;;;;;;27.00;25.00;;;;;;;;5019206;28;45316;-71
2022/04/30 05:25:21;;;;;;;;;25.75;24.25;;;;;;;;5019356;28;45302;-70
2022/04/30 05:27:46;;;;;;;;;25.00;24.25;;;;;;;;5019429;28;45359;-70
2022/04/30 05:30:11;;;;;;;;;27.75;25.00;;;;;;;;5019360;28;45464;-69
2022/04/30 05:32:37;;;;;;;;;18.25;17.75;;;;;;;;5019007;28;45449;-70
2022/04/30 05:35:03;;;;;;;;;19.25;17.50;;;;;;;;5019299;28;45513;-70
2022/04/30 05:37:28;;;;;;;;;29.75;27.75;;;;;;;;5019314;28;45548;-70
2022/04/30 05:39:53;;;;;;;;;26.75;25.25;;;;;;;;5018479;28;46021;-70
2022/04/30 05:42:19;;;;;;;;;26.00;23.75;;;;;;;;5019020;28;45280;-70
2022/04/30 05:44:44;;;;;;;;;20.00;19.25;;;;;;;;5018889;28;45367;-69
2022/04/30 05:47:09;;;;;;;;;25.75;24.75;;;;;;;;5019435;28;45210;-70
2022/04/30 05:49:35;;;;;;;;;24.50;23.75;;;;;;;;5018190;28;46006;-71
2022/04/30 05:52:00;;;;;;;;;21.75;21.25;;;;;;;;5018774;28;45489;-69
2022/04/30 05:54:28;;;;;;;;;24.25;21.50;;;;;;;;5019031;28;45384;-69
2022/04/30 05:56:53;;;;;;;;;22.25;21.00;;;;;;;;5018808;28;45581;-69
2022/04/30 05:59:18;;;;;;;;;25.00;23.00;;;;;;;;5018566;28;45615;-69
2022/04/30 06:01:44;;;;;;;;;27.00;25.25;;;;;;;;5019002;28;45244;-68
2022/04/30 06:04:09;;;;;;;;;24.25;23.50;;;;;;;;5018736;28;45390;-70
2022/04/30 06:06:34;;;;;;;;;25.25;21.00;;;;;;;;5019000;28;45454;-70
2022/04/30 06:09:00;;;;;;;;;27.00;23.75;;;;;;;;5018283;28;46124;-69
2022/04/30 06:11:25;;;;;;;;;28.00;24.25;;;;;;;;5018536;28;45775;-70
2022/04/30 06:13:50;;;;;;;;;21.25;17.00;;;;;;;;5018503;28;46121;-70
2022/04/30 06:16:16;;;;;;;;;27.25;25.25;;;;;;;;5018706;28;45359;-69
2022/04/30 06:18:42;;;;;;;;;26.25;23.75;;;;;;;;5018716;28;46101;-70
2022/04/30 06:21:07;;;;;;;;;21.75;19.75;;;;;;;;5018243;28;45519;-70
2022/04/30 06:23:33;;;;;;;;;26.00;23.00;;;;;;;;5017505;28;45693;-69
2022/04/30 06:25:58;;;;;;;;;26.00;21.50;;;;;;;;5016846;28;45439;-69
2022/04/30 06:28:24;;;;;;;;;24.75;24.00;;;;;;;;5016286;28;45954;-69
2022/04/30 06:30:49;;;;;;;;;24.50;21.00;;;;;;;;5016406;28;45443;-70
2022/04/30 06:33:15;;;;;;;;;24.75;22.75;;;;;;;;5016590;28;45386;-68
2022/04/30 06:35:40;;;;;;;;;20.25;19.00;;;;;;;;5016629;28;45466;-67
2022/04/30 06:38:06;;;;;;;;;24.75;20.75;;;;;;;;5016178;28;45392;-69
2022/04/30 06:40:31;;;;;;;;;25.50;21.75;;;;;;;;5016156;28;45434;-69
2022/04/30 06:42:57;;;;;;;;;20.75;18.50;;;;;;;;5014938;28;45538;-69
2022/04/30 06:45:23;;;;;;;;;21.00;18.50;;;;;;;;5016312;28;45495;-69
2022/04/30 06:47:48;;;;;;;;;21.75;19.25;;;;;;;;5015902;28;45957;-69
2022/04/30 06:50:13;;;;;;;;;23.00;21.25;;;;;;;;5016390;28;45501;-69
2022/04/30 06:57:07;;;;;;;;;26.00;22.50;;;;;;;;5016139;28;45730;-67
2022/04/30 06:58:08;;;;;;;;;22.25;20.25;;;;;;;;5010469;28;45795;-69
2022/04/30 07:03:19;;;;;;;;;23.25;22.00;;;;;;;;5012141;28;45525;-71
2022/04/30 07:05:46;;;;;;;;;20.00;20.00;;;;;;;;5012622;28;45401;-71
2022/04/30 07:08:11;;;;;;;;;22.00;18.25;;;;;;;;5015383;28;45884;-71
2022/04/30 07:10:36;;;;;;;;;19.50;19.00;;;;;;;;5015044;28;45314;-70
2022/04/30 07:13:02;;;;;;;;;19.50;18.50;;;;;;;;5014499;28;45757;-71
2022/04/30 07:15:27;;;;;;;;;18.00;17.50;;;;;;;;5016119;28;45341;-71
2022/04/30 07:17:52;;;;;;;;;18.75;17.50;;;;;;;;5016160;28;46117;-71
2022/04/30 07:20:18;;;;;;;;;20.75;17.00;;;;;;;;5016526;28;45393;-72
2022/04/30 07:22:43;;;;;;;;;20.25;19.00;;;;;;;;5016524;28;45474;-71
2022/04/30 07:25:08;;;;;;;;;19.50;17.75;;;;;;;;5016634;28;45358;-72
2022/04/30 07:27:34;;;;;;;;;17.75;17.00;;;;;;;;5016717;28;46358;-70
2022/04/30 07:29:59;;;;;;;;;19.25;17.50;;;;;;;;5015380;28;45453;-71
2022/04/30 07:32:24;;;;;;;;;19.25;18.00;;;;;;;;5016212;28;45454;-71
2022/04/30 07:34:50;;;;;;;;;15.75;15.75;;;;;;;;5016298;28;45389;-71
2022/04/30 07:37:16;;;;;;;;;25.50;24.25;;;;;;;;5016707;28;45297;-71
2022/04/30 07:39:42;;;;;;;;;21.50;20.25;;;;;;;;5016260;28;45331;-70
2022/04/30 07:42:07;;;;;;;;;15.33;14.33;;;;;;;;4995221;28;45483;-71
2022/04/30 07:44:33;;;;;;;;;17.75;15.25;;;;;;;;5016313;28;45485;-70
2022/04/30 07:46:58;;;;;;;;;53.75;43.00;;;;;;;;5015524;28;46196;-68
2022/04/30 07:49:24;;;;;;;;;17.67;16.67;;;;;;;;5015309;28;45325;-71
2022/04/30 07:51:53;;;;;;;;;16.33;13.33;;;;;;;;5015802;28;45450;-72
2022/04/30 07:54:19;;;;;;;;;19.00;15.33;;;;;;;;5016100;28;45437;-70
2022/04/30 07:56:45;;;;;;;;;16.33;15.00;;;;;;;;5014759;28;46372;-70
2022/04/30 07:59:10;;;;;;;;;15.67;14.67;;;;;;;;5012592;28;45386;-69
2022/04/30 08:01:36;;;;;;;;;17.67;16.67;;;;;;;;5014386;28;45447;-70
2022/04/30 08:04:01;;;;;;;;;18.67;17.00;;;;;;;;5014762;28;45365;-69
2022/04/30 08:06:27;;;;;;;;;16.00;15.67;;;;;;;;5013789;28;45458;-70
2022/04/30 08:08:52;;;;;;;;;16.33;15.00;;;;;;;;5013989;28;45466;-69
2022/04/30 08:11:17;;;;;;;;;17.75;16.75;;;;;;;;5013949;28;45563;-71
2022/04/30 08:13:43;;;;;;;;;20.00;18.00;;;;;;;;5016245;28;45632;-71
2022/04/30 08:16:09;;;;;;;;;15.67;15.00;;;;;;;;5017212;28;46003;-71
2022/04/30 08:18:35;;;;;;;;;16.33;16.33;;;;;;;;5017505;28;45522;-71
2022/04/30 08:21:01;;;;;;;;;15.00;15.00;;;;;;;;5017585;28;45435;-71
2022/04/30 08:23:26;;;;;;;;;15.67;14.00;;;;;;;;5017308;28;45625;-72
2022/04/30 08:25:51;;;;;;;;;13.00;11.67;;;;;;;;5017201;28;45422;-70
2022/04/30 08:28:17;;;;;;;;;12.33;12.00;;;;;;;;5017274;28;45794;-69
2022/04/30 08:30:42;;;;;;;;;11.67;11.33;;;;;;;;5017834;28;45896;-70
2022/04/30 08:33:07;;;;;;;;;7.67;7.67;;;;;;;;5017371;28;45451;-70
2022/04/30 08:35:33;;;;;;;;;11.00;9.67;;;;;;;;5017658;28;45481;-69
2022/04/30 08:37:58;;;;;;;;;14.00;13.33;;;;;;;;5017923;28;45402;-70
2022/04/30 08:40:24;;;;;;;;;14.00;13.00;;;;;;;;5017942;28;45296;-70
2022/04/30 08:42:49;;;;;;;;;13.33;12.00;;;;;;;;5017887;28;45427;-71
2022/04/30 08:45:15;;;;;;;;;15.67;13.67;;;;;;;;5018644;28;46580;-71
2022/04/30 08:47:42;;;;;;;;;13.33;12.33;;;;;;;;5018889;28;45459;-72
2022/04/30 08:50:08;;;;;;;;;13.00;12.00;;;;;;;;5019478;28;45778;-72
2022/04/30 08:52:33;;;;;;;;;15.00;14.33;;;;;;;;5019790;28;45265;-72
2022/04/30 08:54:59;;;;;;;;;14.00;13.00;;;;;;;;5018894;28;46222;-71
2022/04/30 08:57:24;;;;;;;;;16.33;14.67;;;;;;;;5019671;28;45333;-71
2022/04/30 08:59:50;;;;;;;;;16.33;13.00;;;;;;;;5019924;28;45363;-71
2022/04/30 09:02:16;;;;;;;;;16.33;13.67;;;;;;;;5019870;28;45307;-72
2022/04/30 09:04:43;;;;;;;;;17.00;16.50;;;;;;;;5018892;28;45239;-72
2022/04/30 09:07:12;;;;;;;;;14.67;14.00;;;;;;;;5019570;28;45360;-71
2022/04/30 09:09:37;;;;;;;;;12.33;12.33;;;;;;;;5019676;28;45164;-72
2022/04/30 09:12:06;;;;;;;;;14.00;13.00;;;;;;;;5019581;28;45237;-70
2022/04/30 09:14:32;;;;;;;;;16.00;14.00;;;;;;;;5017972;28;46853;-72
2022/04/30 09:17:05;;;;;;;;;15.33;14.67;;;;;;;;5018912;28;45307;-72
2022/04/30 09:19:30;;;;;;;;;14.33;13.00;;;;;;;;5019274;28;45178;-71
2022/04/30 09:21:56;;;;;;;;;16.00;15.33;;;;;;;;5018105;28;45513;-71
2022/04/30 09:24:21;;;;;;;;;15.00;13.00;;;;;;;;5018140;28;45641;-71
2022/04/30 09:26:47;;;;;;;;;16.33;14.67;;;;;;;;5019586;28;45327;-71
2022/04/30 09:29:23;;;;;;;;;14.33;13.33;;;;;;;;5019238;28;45350;-71
2022/04/30 09:31:50;;;;;;;;;15.33;14.00;;;;;;;;5019496;28;45446;-72
2022/04/30 09:39:46;;;;;;;;;16.50;15.25;;;;;;;;5019335;28;45398;-72
2022/04/30 09:42:12;;;;;;;;;16.67;14.67;;;;;;;;5019022;28;45322;-72
2022/04/30 09:44:38;;;;;;;;;17.33;15.00;;;;;;;;5018663;28;46289;-72
2022/04/30 09:47:06;;;;;;;;;17.00;15.25;;;;;;;;5018638;28;45311;-72
2022/04/30 09:55:00;;;;;;;;;15.67;15.00;;;;;;;;5018628;28;45406;-72
2022/04/30 09:57:26;;;;;;;;;18.67;14.67;;;;;;;;5018442;28;45445;-72
2022/04/30 09:59:55;;;;;;;;;16.00;15.00;;;;;;;;5018340;28;45470;-71
2022/04/30 10:02:21;;;;;;;;;15.67;14.33;;;;;;;;5018984;28;45276;-70
2022/04/30 10:04:47;;;;;;;;;19.67;16.67;;;;;;;;5018569;28;45589;-72
2022/04/30 10:07:15;;;;;;;;;14.33;13.00;;;;;;;;5018218;28;45373;-72
2022/04/30 10:09:42;;;;;;;;;15.33;14.33;;;;;;;;5018352;28;45407;-72
2022/04/30 10:12:14;;;;;;;;;15.00;14.67;;;;;;;;5018309;28;45369;-72
2022/04/30 10:14:55;;;;;;;;;17.33;15.67;;;;;;;;5018111;28;46133;-71
2022/04/30 10:17:23;;;;;;;;;18.33;16.67;;;;;;;;5018413;28;45504;-72
2022/04/30 10:19:59;;;;;;;;;55.25;44.25;;;;;;;;5017107;28;45413;-72
2022/04/30 10:22:25;;;;;;;;;19.67;18.33;;;;;;;;5018067;28;45450;-70
2022/04/30 10:24:53;;;;;;;;;19.00;16.33;;;;;;;;5017955;28;46164;-71
2022/04/30 10:27:19;;;;;;;;;20.25;16.75;;;;;;;;5018273;28;45532;-71
2022/04/30 10:30:00;;;;;;;;;16.67;15.33;;;;;;;;5018068;28;45596;-71
2022/04/30 10:32:28;;;;;;;;;15.67;14.00;;;;;;;;5018118;28;45489;-71
2022/04/30 10:34:53;;;;;;;;;16.33;14.67;;;;;;;;5017961;28;45530;-71
2022/04/30 10:37:28;;;;;;;;;21.33;21.33;;;;;;;;5017934;28;45310;-72
2022/04/30 10:40:03;;;;;;;;;23.00;17.33;;;;;;;;5018111;28;45489;-72
2022/04/30 10:42:49;;;;;;;;;14.00;12.67;;;;;;;;5017693;28;45264;-72
2022/04/30 10:45:16;;;;;;;;;15.33;15.00;;;;;;;;5017061;28;45591;-71
2022/04/30 10:47:58;;;;;;;;;16.67;14.33;;;;;;;;5016216;28;45504;-72
2022/04/30 10:50:23;;;;;;;;;14.00;13.67;;;;;;;;5015654;28;45379;-72
2022/04/30 10:52:49;;;;;;;;;15.00;13.00;;;;;;;;5016567;28;45343;-71
2022/04/30 10:55:16;;;;;;;;;14.00;14.00;;;;;;;;5016294;28;45626;-71
2022/04/30 10:57:45;;;;;;;;;15.00;15.00;;;;;;;;5016780;28;45425;-71
2022/04/30 11:00:11;;;;;;;;;18.67;17.00;;;;;;;;5017311;28;45348;-72
2022/04/30 11:02:37;;;;;;;;;19.67;18.67;;;;;;;;5017398;28;45159;-70
2022/04/30 11:05:03;;;;;;;;;17.67;15.33;;;;;;;;5017443;28;46326;-71
2022/04/30 11:07:29;;;;;;;;;18.00;16.33;;;;;;;;5017492;28;45458;-71
2022/04/30 11:09:56;;;;;;;;;15.00;15.00;;;;;;;;5017733;28;45330;-71
2022/04/30 11:12:26;;;;;;;;;15.00;15.00;;;;;;;;5018209;28;45485;-71
2022/04/30 11:14:54;;;;;;;;;17.00;14.00;;;;;;;;5017965;28;45461;-71
2022/04/30 11:17:19;;;;;;;;;11.33;11.33;;;;;;;;5018212;28;45533;-72
2022/04/30 11:19:45;;;;;;;;;15.67;15.00;;;;;;;;5017300;28;45370;-71
2022/04/30 11:22:11;;;;;;;;;28.50;26.25;;;;;;;;5017249;28;45584;-72
2022/04/30 11:24:40;;;;;;;;;16.33;15.00;;;;;;;;5017142;28;46083;-72
2022/04/30 11:27:06;;;;;;;;;17.67;15.67;;;;;;;;5017150;28;45840;-72
2022/04/30 11:29:32;;;;;;;;;14.33;12.67;;;;;;;;5015836;28;45486;-70
2022/04/30 11:31:58;;;;;;;;;12.00;12.00;;;;;;;;5017125;28;45448;-73
2022/04/30 11:34:24;;;;;;;;;13.33;13.33;;;;;;;;5016570;28;46724;-72
2022/04/30 11:36:51;;;;;;;;;16.33;14.33;;;;;;;;5017090;28;45439;-73
2022/04/30 11:39:17;;;;;;;;;17.00;14.33;;;;;;;;5017296;28;45292;-73
2022/04/30 11:41:46;;;;;;;;;14.67;14.00;;;;;;;;5017324;28;45393;-72
2022/04/30 11:44:11;;;;;;;;;14.67;14.33;;;;;;;;5017320;28;45737;-72
2022/04/30 11:46:38;;;;;;;;;15.67;14.67;;;;;;;;5016751;28;45470;-72
2022/04/30 11:49:08;;;;;;;;;15.67;15.00;;;;;;;;5016116;28;46087;-72
2022/04/30 11:51:34;;;;;;;;;13.33;13.33;;;;;;;;5017083;28;45454;-72
2022/04/30 11:54:00;;;;;;;;;11.33;11.33;;;;;;;;5015200;28;47530;-71
2022/04/30 11:56:26;;;;;;;;;13.33;13.33;;;;;;;;5017189;28;45319;-71
2022/04/30 11:58:51;;;;;;;;;13.00;12.67;;;;;;;;5016879;28;45449;-72
2022/04/30 12:01:24;;;;;;;;;13.67;13.33;;;;;;;;5017123;28;45298;-72
2022/04/30 12:03:58;;;;;;;;;13.67;13.33;;;;;;;;5016537;28;45205;-72
2022/04/30 12:06:24;;;;;;;;;13.00;12.33;;;;;;;;5017032;28;45504;-72
2022/04/30 12:08:49;;;;;;;;;13.67;13.33;;;;;;;;5016626;28;45489;-72
2022/04/30 12:11:14;;;;;;;;;11.00;11.00;;;;;;;;5016909;28;45297;-71
2022/04/30 12:13:40;;;;;;;;;12.00;11.33;;;;;;;;5016548;28;46019;-71
2022/04/30 12:16:06;;;;;;;;;13.67;10.67;;;;;;;;5016614;28;45233;-72
2022/04/30 12:26:58;;;;;;;;;14.00;12.00;;;;;;;;5016354;28;45308;-72
2022/04/30 12:29:24;;;;;;;;;13.00;12.67;;;;;;;;5016796;28;45540;-73
2022/04/30 12:31:53;;;;;;;;;11.00;10.67;;;;;;;;5016822;28;45455;-72
2022/04/30 12:34:18;;;;;;;;;15.33;12.33;;;;;;;;5016116;28;46249;-73
2022/04/30 12:36:54;;;;;;;;;14.00;12.00;;;;;;;;5016435;28;45457;-72
2022/04/30 12:39:20;;;;;;;;;12.67;12.67;;;;;;;;5016250;28;45245;-71
2022/04/30 12:41:45;;;;;;;;;11.67;11.00;;;;;;;;5016435;28;45573;-72
2022/04/30 12:44:10;;;;;;;;;13.33;12.00;;;;;;;;5016233;28;45259;-72
2022/04/30 12:46:36;;;;;;;;;12.00;11.00;;;;;;;;5016213;28;45244;-72
2022/04/30 12:49:01;;;;;;;;;12.33;10.33;;;;;;;;5016286;28;45245;-72
2022/04/30 12:51:26;;;;;;;;;13.33;12.00;;;;;;;;5016530;28;45597;-72
2022/04/30 12:53:54;;;;;;;;;12.00;11.00;;;;;;;;5017034;28;45480;-72
2022/04/30 12:56:23;;;;;;;;;12.33;10.67;;;;;;;;5020835;28;45260;-71
2022/04/30 12:58:48;;;;;;;;;15.67;13.00;;;;;;;;5020929;28;45281;-72
2022/04/30 13:01:13;;;;;;;;;13.67;12.33;;;;;;;;5018190;28;45585;-71
2022/04/30 13:03:40;;;;;;;;;15.33;12.67;;;;;;;;5017551;28;45418;-72
2022/04/30 13:06:06;;;;;;;;;11.67;11.00;;;;;;;;5017829;28;45335;-72
2022/04/30 13:14:16;;;;;;;;;14.67;13.00;;;;;;;;5015260;28;45928;-71
2022/04/30 13:16:41;;;;;;;;;14.33;12.67;;;;;;;;5017189;28;45386;-71
2022/04/30 13:19:06;;;;;;;;;13.33;12.67;;;;;;;;5017452;28;45379;-72
2022/04/30 13:21:33;;;;;;;;;15.00;12.00;;;;;;;;5017346;28;45319;-71
2022/04/30 13:23:59;;;;;;;;;15.00;13.67;;;;;;;;5017855;28;45576;-71
2022/04/30 13:26:24;;;;;;;;;14.00;13.00;;;;;;;;5018197;28;45462;-72
2022/04/30 13:28:50;;;;;;;;;12.33;10.67;;;;;;;;5018299;28;45311;-74
2022/04/30 13:31:15;;;;;;;;;14.00;14.00;;;;;;;;5018203;28;45488;-72
2022/04/30 13:33:40;;;;;;;;;14.33;13.33;;;;;;;;5016706;28;45976;-72
2022/04/30 13:36:07;;;;;;;;;13.67;12.33;;;;;;;;5017283;28;45907;-74
2022/04/30 13:38:33;;;;;;;;;14.00;11.00;;;;;;;;5018038;28;45476;-71
2022/04/30 13:40:58;;;;;;;;;13.67;13.00;;;;;;;;5018899;28;45365;-72
2022/04/30 13:43:24;;;;;;;;;14.33;12.00;;;;;;;;5018390;28;45532;-72
2022/04/30 13:45:49;;;;;;;;;12.00;10.00;;;;;;;;5018124;28;45461;-72
2022/04/30 13:48:15;;;;;;;;;18.33;13.00;;;;;;;;5018499;28;45447;-72
2022/04/30 13:50:41;;;;;;;;;13.00;12.00;;;;;;;;5018891;28;45343;-71
2022/04/30 13:53:07;;;;;;;;;14.00;13.00;;;;;;;;5017092;28;45771;-71
2022/04/30 13:55:34;;;;;;;;;12.00;12.00;;;;;;;;5016619;28;46053;-72
2022/04/30 13:57:59;;;;;;;;;13.00;11.67;;;;;;;;5017288;28;45525;-72
2022/04/30 14:00:25;;;;;;;;;12.00;12.00;;;;;;;;5016972;28;45419;-71
2022/04/30 14:02:50;;;;;;;;;11.33;11.00;;;;;;;;5016637;28;46133;-71
2022/04/30 14:05:15;;;;;;;;;12.33;12.00;;;;;;;;5016514;28;45355;-72
2022/04/30 14:07:41;;;;;;;;;14.67;13.67;;;;;;;;5015345;28;45458;-72
2022/04/30 14:10:06;;;;;;;;;13.00;12.00;;;;;;;;5016465;28;45754;-72
2022/04/30 14:12:32;;;;;;;;;12.67;11.67;;;;;;;;5017502;28;46005;-71
2022/04/30 14:14:58;;;;;;;;;11.33;11.00;;;;;;;;5018413;28;45469;-72
2022/04/30 14:20:10;;;;;;;;;13.33;12.67;;;;;;;;5018091;28;45593;-73
2022/04/30 14:22:35;;;;;;;;;12.33;11.67;;;;;;;;5017876;28;45411;-71
2022/04/30 14:25:00;;;;;;;;;14.00;12.67;;;;;;;;5016729;28;45514;-71
2022/04/30 14:27:26;;;;;;;;;15.33;13.67;;;;;;;;5018001;28;45384;-71
2022/04/30 14:29:51;;;;;;;;;14.33;13.67;;;;;;;;5018054;28;45449;-72
2022/04/30 14:32:18;;;;;;;;;15.67;13.67;;;;;;;;5017460;28;46300;-72
2022/04/30 14:34:44;;;;;;;;;16.00;15.00;;;;;;;;5017941;28;45406;-72
2022/04/30 14:37:09;;;;;;;;;15.33;13.33;;;;;;;;5017714;28;45286;-72
2022/04/30 14:39:35;;;;;;;;;10.67;10.33;;;;;;;;5017761;28;45404;-72
2022/04/30 14:42:01;;;;;;;;;15.67;15.33;;;;;;;;5016796;28;45893;-71
2022/04/30 14:44:26;;;;;;;;;13.33;12.00;;;;;;;;5017496;28;45583;-72
2022/04/30 14:46:52;;;;;;;;;14.67;13.67;;;;;;;;5017573;28;45382;-72
2022/04/30 14:49:17;;;;;;;;;19.00;16.33;;;;;;;;5017761;28;45513;-71
2022/04/30 14:51:43;;;;;;;;;14.67;13.67;;;;;;;;5015879;28;47948;-73
2022/04/30 14:54:08;;;;;;;;;23.00;18.00;;;;;;;;5017539;28;45349;-72
2022/04/30 14:56:34;;;;;;;;;22.67;17.67;;;;;;;;5017460;28;45477;-72
2022/04/30 14:59:00;;;;;;;;;14.33;14.33;;;;;;;;5017760;28;45384;-72
2022/04/30 15:01:25;;;;;;;;;18.00;16.67;;;;;;;;5017376;28;46200;-72
2022/04/30 15:03:51;;;;;;;;;14.33;14.00;;;;;;;;5016720;28;45328;-71
2022/04/30 15:06:16;;;;;;;;;16.00;14.67;;;;;;;;5017615;28;45421;-71
2022/04/30 15:08:42;;;;;;;;;13.67;13.67;;;;;;;;5017506;28;45315;-71